Pitangui, Brazil
Current Conditions -  °F | °C
As of 12:00 PM on Thursday 29 Jan 2015 (Local Time) from SBBH Reporting Station
Few Clouds Few Clouds  
Wind Chill: 84°   Ceiling: Unl
Heat Index: 86°   Visibility: 6mi
Dew Point: 64°   Wind: 5mph
Humidity: 51%   Direction: 340°NNW
Pressure: 30.09"   Gusts: NA
Location:  19.68°S, 44.89°W
Report Text: SBBH 291400Z 34004KT 9999 FEW030 29/18 Q1019
Loading
Personal Weather Stations






























Interactive Weather Map New forecast layout! Learn more

10-Day Weather Forecast

Advertisements
Track Severe Weather on mobile